Terminal Aerodrome Forecast
Issued by NWS Twin Cities, MN

Home | Current Version | Previous Version | Text Only | Print | Product List | Glossary On
Versions: 1 2 3 4 5 6 7 8 9 10 11 12 13 14 15 16 17 18 19 20 21 22
282
FTUS43 KMPX 220712 AAA
TAFEAU
TAF AMD
KEAU 220712Z 2207/2306 00000KT 1/2SM -DZ FG VV003
     FM221600 VRB03KT 2SM BR OVC003
     FM222000 31005KT 4SM BR OVC006
     FM230100 29003KT 1 1/2SM BR OVC004=

USA.gov is the U.S. government's official web portal to all federal, state and local government web resources and services.